Pagrindinis puslapis
METAR-TAF:

METAR-TAF

Oro uostai :

Unalakleet, Aliaska, Jungtinės Amerikos Valstijos

platuma: 63-53N, ilguma: 160-48W, Aukštis: 6 m

Dabartinis oras

Ataskaita buvo paskelbta 18 minutes, ne 03:56 UTC
Vėjas 5 kt iš Vakarų/Šiaurės Vakarų
Temperatūra 12°C
Drėgmė 94%
Slėgis 1001 hPa
Matomumas: 16.1 km
Apsiniaukę ne aukštis 6000 ft

METAR: PAUN 160356Z AUTO 29005KT 10SM OVC060 12/11 A2957 RMK AO2 SLP017 T01220111 PNO $

Laikas: 20:14 (04:14 UTC)

Prognozė

Ataskaita buvo paskelbta 4 valandos ir 53 minutes, ne 23:21 UTC
Prognozė galioja nuo 16 metu 00 UTC su 16 metu 24 UTC
Vėjas kt iš Šiaurės
Matomumas: 10 km
Apsiniaukę ne aukštis 2400 ft
lietus
Nuo 16 metu 0800 UTC
Vėjas 10 kt iš Šiaurės Vakarų
Matomumas: 10 km
Su prošvaistėmis ne aukštis 2500 ft
Apsiniaukę ne aukštis 5000 ft
Liūtis kaimynystėje
Nuo 16 metu 1600 UTC
Vėjas 7 kt iš Vakarų
Matomumas: 10 km
Apsiniaukę ne aukštis 5000 ft

TAF: PAUN 152321Z 1600/1624 00000KT P6SM -RA OVC024 FM160800 32010KT P6SM VCSH BKN025 OVC050 FM161600 28007KT P6SM OVC050

Orai ataskaitas ir orų prognozės (METAR, TAF).

turimą stotys yra geltonos ir raudonos taškus žemėlapyje.

Perkelti pele per norėdami pamatyti stoties vardą.

Tada spustelėkite, norėdami matyti oro stebėjimo ir prognozės.

Norėdami pakeisti žemėlapį: spustelėkite ant žalios mygtukų su juodo kryžiaus žemyn,; žalią mygtuką su brūkšneliu, jei norite nutolinti; arba žalių rodyklių gretimoms žemėlapius.


METAR-TAF: